Terminal Aerodrome Forecast
Issued by NWS

Home | Current Version | Previous Version | Text Only | Print | Product List | Glossary On
Versions: 1 2 3 4 5 6 7 8 9 10 11 12 13 14 15 16 17 18 19
000
FTUS43 KLSX 261137
TAFCPS
TAF
KCPS 261137Z 2612/2712 26010KT P6SM SCT050 BKN110
     FM261800 19008KT 6SM SHRA VCTS OVC030CB
     FM262100 01009KT 3SM SHRA VCTS OVC025CB
     FM270100 33008KT P6SM VCSH OVC015
     FM270700 29012G19KT P6SM OVC010=

USA.gov is the U.S. government's official web portal to all federal, state and local government web resources and services.